sensor_id;sensor_type;location;lat;lon;timestamp;P1;durP1;ratioP1;P2;durP2;ratioP2
20008;SDS011;10165;42.662;23.260;2023-07-13T02:03:54;5.20;;;3.57;;
20008;SDS011;10165;42.662;23.260;2023-07-13T02:08:02;5.07;;;3.70;;
20008;SDS011;10165;42.662;23.260;2023-07-13T02:12:10;5.47;;;3.47;;
20008;SDS011;10165;42.662;23.260;2023-07-13T02:16:17;3.77;;;3.37;;
20008;SDS011;10165;42.662;23.260;2023-07-13T02:20:18;7.93;;;4.03;;
20008;SDS011;10165;42.662;23.260;2023-07-13T02:27:32;3.80;;;3.30;;
20008;SDS011;10165;42.662;23.260;2023-07-13T02:31:19;8.00;;;4.40;;
20008;SDS011;10165;42.662;23.260;2023-07-13T02:34:57;4.83;;;3.90;;
20008;SDS011;10165;42.662;23.260;2023-07-13T02:38:33;4.97;;;3.80;;
20008;SDS011;10165;42.662;23.260;2023-07-13T02:42:00;6.97;;;4.23;;
20008;SDS011;10165;42.662;23.260;2023-07-13T02:45:24;6.13;;;3.97;;
20008;SDS011;10165;42.662;23.260;2023-07-13T02:49:07;8.77;;;4.47;;
20008;SDS011;10165;42.662;23.260;2023-07-13T02:52:37;6.40;;;4.10;;
20008;SDS011;10165;42.662;23.260;2023-07-13T02:56:03;6.30;;;3.90;;
20008;SDS011;10165;42.662;23.260;2023-07-13T03:03:33;5.83;;;4.40;;
20008;SDS011;10165;42.662;23.260;2023-07-13T03:06:59;4.07;;;3.67;;
20008;SDS011;10165;42.662;23.260;2023-07-13T03:10:22;5.90;;;3.57;;
20008;SDS011;10165;42.662;23.260;2023-07-13T03:13:58;7.80;;;4.40;;
20008;SDS011;10165;42.662;23.260;2023-07-13T03:17:20;8.20;;;4.30;;
20008;SDS011;10165;42.662;23.260;2023-07-13T03:20:43;5.93;;;4.20;;
20008;SDS011;10165;42.662;23.260;2023-07-13T03:24:02;5.20;;;4.47;;
20008;SDS011;10165;42.662;23.260;2023-07-13T03:27:17;4.73;;;4.10;;
20008;SDS011;10165;42.662;23.260;2023-07-13T03:30:34;6.10;;;3.53;;
20008;SDS011;10165;42.662;23.260;2023-07-13T03:33:34;9.93;;;3.93;;
20008;SDS011;10165;42.662;23.260;2023-07-13T03:36:25;6.83;;;4.10;;
20008;SDS011;10165;42.662;23.260;2023-07-13T03:39:11;5.17;;;4.20;;
20008;SDS011;10165;42.662;23.260;2023-07-13T03:41:42;10.33;;;4.33;;
20008;SDS011;10165;42.662;23.260;2023-07-13T03:44:18;7.23;;;4.73;;
20008;SDS011;10165;42.662;23.260;2023-07-13T03:47:09;6.10;;;4.13;;
20008;SDS011;10165;42.662;23.260;2023-07-13T03:50:15;9.10;;;4.57;;
20008;SDS011;10165;42.662;23.260;2023-07-13T03:52:46;7.07;;;4.20;;
20008;SDS011;10165;42.662;23.260;2023-07-13T03:55:22;7.70;;;5.10;;
20008;SDS011;10165;42.662;23.260;2023-07-13T04:00:57;7.20;;;4.57;;
20008;SDS011;10165;42.662;23.260;2023-07-13T04:03:43;6.90;;;4.67;;
20008;SDS011;10165;42.662;23.260;2023-07-13T04:06:22;6.23;;;4.73;;
20008;SDS011;10165;42.662;23.260;2023-07-13T04:09:22;6.73;;;4.50;;
20008;SDS011;10165;42.662;23.260;2023-07-13T04:12:15;8.67;;;5.17;;
20008;SDS011;10165;42.662;23.260;2023-07-13T04:14:43;10.20;;;4.70;;
20008;SDS011;10165;42.662;23.260;2023-07-13T04:17:12;9.23;;;5.77;;
20008;SDS011;10165;42.662;23.260;2023-07-13T04:19:42;11.87;;;5.27;;
20008;SDS011;10165;42.662;23.260;2023-07-13T04:22:16;7.70;;;5.60;;
20008;SDS011;10165;42.662;23.260;2023-07-13T04:24:51;5.90;;;5.20;;
20008;SDS011;10165;42.662;23.260;2023-07-13T04:27:25;8.37;;;5.33;;
20008;SDS011;10165;42.662;23.260;2023-07-13T04:29:53;9.73;;;5.47;;
20008;SDS011;10165;42.662;23.260;2023-07-13T04:32:25;12.90;;;6.50;;
20008;SDS011;10165;42.662;23.260;2023-07-13T04:34:59;6.10;;;5.13;;
20008;SDS011;10165;42.662;23.260;2023-07-13T04:37:28;6.40;;;5.17;;
20008;SDS011;10165;42.662;23.260;2023-07-13T04:39:57;7.47;;;5.47;;
20008;SDS011;10165;42.662;23.260;2023-07-13T04:42:26;8.60;;;5.20;;
20008;SDS011;10165;42.662;23.260;2023-07-13T04:45:09;7.90;;;5.50;;
20008;SDS011;10165;42.662;23.260;2023-07-13T04:47:40;8.83;;;5.53;;
20008;SDS011;10165;42.662;23.260;2023-07-13T04:50:09;19.50;;;6.47;;
20008;SDS011;10165;42.662;23.260;2023-07-13T04:52:42;13.93;;;6.27;;
20008;SDS011;10165;42.662;23.260;2023-07-13T04:55:12;9.10;;;6.17;;
20008;SDS011;10165;42.662;23.260;2023-07-13T04:57:42;10.97;;;6.87;;
20008;SDS011;10165;42.662;23.260;2023-07-13T05:00:13;9.53;;;5.80;;
20008;SDS011;10165;42.662;23.260;2023-07-13T05:02:45;16.73;;;6.93;;
20008;SDS011;10165;42.662;23.260;2023-07-13T05:05:14;11.97;;;7.13;;
20008;SDS011;10165;42.662;23.260;2023-07-13T05:07:43;14.70;;;7.00;;
20008;SDS011;10165;42.662;23.260;2023-07-13T05:10:14;13.73;;;6.43;;
20008;SDS011;10165;42.662;23.260;2023-07-13T05:12:43;22.83;;;7.63;;
20008;SDS011;10165;42.662;23.260;2023-07-13T05:15:13;10.90;;;7.20;;
20008;SDS011;10165;42.662;23.260;2023-07-13T05:17:41;14.70;;;7.90;;
20008;SDS011;10165;42.662;23.260;2023-07-13T05:20:12;14.23;;;8.13;;
20008;SDS011;10165;42.662;23.260;2023-07-13T05:22:41;12.13;;;8.60;;
20008;SDS011;10165;42.662;23.260;2023-07-13T05:25:11;19.47;;;8.37;;
20008;SDS011;10165;42.662;23.260;2023-07-13T05:27:41;10.70;;;7.50;;
20008;SDS011;10165;42.662;23.260;2023-07-13T05:30:14;16.37;;;8.37;;
20008;SDS011;10165;42.662;23.260;2023-07-13T05:32:44;9.80;;;7.43;;
20008;SDS011;10165;42.662;23.260;2023-07-13T05:35:13;15.50;;;7.53;;
20008;SDS011;10165;42.662;23.260;2023-07-13T05:37:44;11.90;;;7.60;;
20008;SDS011;10165;42.662;23.260;2023-07-13T05:40:12;14.83;;;7.40;;
20008;SDS011;10165;42.662;23.260;2023-07-13T05:42:42;15.23;;;7.70;;
20008;SDS011;10165;42.662;23.260;2023-07-13T05:45:11;21.17;;;10.13;;
20008;SDS011;10165;42.662;23.260;2023-07-13T05:47:41;18.57;;;8.57;;
20008;SDS011;10165;42.662;23.260;2023-07-13T05:50:13;17.93;;;8.37;;
20008;SDS011;10165;42.662;23.260;2023-07-13T05:52:45;10.30;;;7.23;;
20008;SDS011;10165;42.662;23.260;2023-07-13T05:55:14;20.27;;;7.83;;
20008;SDS011;10165;42.662;23.260;2023-07-13T05:57:42;10.70;;;7.30;;
20008;SDS011;10165;42.662;23.260;2023-07-13T06:00:14;20.33;;;7.40;;
20008;SDS011;10165;42.662;23.260;2023-07-13T06:02:43;10.17;;;7.03;;
20008;SDS011;10165;42.662;23.260;2023-07-13T06:05:22;9.30;;;6.63;;
20008;SDS011;10165;42.662;23.260;2023-07-13T06:07:51;13.57;;;7.93;;
20008;SDS011;10165;42.662;23.260;2023-07-13T06:10:20;13.77;;;7.40;;
20008;SDS011;10165;42.662;23.260;2023-07-13T06:12:48;11.80;;;7.50;;
20008;SDS011;10165;42.662;23.260;2023-07-13T06:15:21;23.33;;;7.57;;
20008;SDS011;10165;42.662;23.260;2023-07-13T06:18:03;16.63;;;8.70;;
20008;SDS011;10165;42.662;23.260;2023-07-13T06:20:30;15.30;;;8.83;;
20008;SDS011;10165;42.662;23.260;2023-07-13T06:23:01;13.37;;;9.03;;
20008;SDS011;10165;42.662;23.260;2023-07-13T06:25:28;14.43;;;9.03;;
20008;SDS011;10165;42.662;23.260;2023-07-13T06:27:55;18.73;;;8.60;;
20008;SDS011;10165;42.662;23.260;2023-07-13T06:30:21;16.23;;;8.73;;
20008;SDS011;10165;42.662;23.260;2023-07-13T06:32:48;13.27;;;8.73;;
20008;SDS011;10165;42.662;23.260;2023-07-13T06:35:15;14.17;;;8.80;;
20008;SDS011;10165;42.662;23.260;2023-07-13T06:37:42;12.70;;;8.63;;
20008;SDS011;10165;42.662;23.260;2023-07-13T06:40:09;17.13;;;8.27;;
20008;SDS011;10165;42.662;23.260;2023-07-13T06:42:36;18.20;;;9.07;;
20008;SDS011;10165;42.662;23.260;2023-07-13T06:45:04;12.67;;;9.53;;
20008;SDS011;10165;42.662;23.260;2023-07-13T06:47:32;13.90;;;8.67;;
20008;SDS011;10165;42.662;23.260;2023-07-13T06:50:00;16.97;;;8.83;;
20008;SDS011;10165;42.662;23.260;2023-07-13T06:52:27;14.37;;;8.33;;
20008;SDS011;10165;42.662;23.260;2023-07-13T06:54:53;10.10;;;7.03;;
20008;SDS011;10165;42.662;23.260;2023-07-13T06:57:20;9.50;;;7.50;;
20008;SDS011;10165;42.662;23.260;2023-07-13T06:59:47;10.60;;;7.00;;
20008;SDS011;10165;42.662;23.260;2023-07-13T07:02:14;12.67;;;7.23;;
20008;SDS011;10165;42.662;23.260;2023-07-13T07:04:41;16.40;;;6.70;;
20008;SDS011;10165;42.662;23.260;2023-07-13T07:07:08;8.97;;;6.17;;
20008;SDS011;10165;42.662;23.260;2023-07-13T07:09:34;9.40;;;6.93;;
20008;SDS011;10165;42.662;23.260;2023-07-13T07:12:02;12.33;;;6.77;;
20008;SDS011;10165;42.662;23.260;2023-07-13T07:14:30;10.60;;;7.37;;
20008;SDS011;10165;42.662;23.260;2023-07-13T07:16:57;11.43;;;7.45;;
20008;SDS011;10165;42.662;23.260;2023-07-13T07:19:25;8.93;;;7.70;;
20008;SDS011;10165;42.662;23.260;2023-07-13T07:21:53;9.52;;;6.68;;
20008;SDS011;10165;42.662;23.260;2023-07-13T07:24:20;14.45;;;7.97;;
20008;SDS011;10165;42.662;23.260;2023-07-13T07:26:47;12.07;;;7.32;;
20008;SDS011;10165;42.662;23.260;2023-07-13T07:29:16;11.30;;;7.70;;
20008;SDS011;10165;42.662;23.260;2023-07-13T07:31:46;14.10;;;7.90;;
20008;SDS011;10165;42.662;23.260;2023-07-13T07:34:29;12.52;;;7.65;;
20008;SDS011;10165;42.662;23.260;2023-07-13T07:36:59;10.95;;;6.65;;
20008;SDS011;10165;42.662;23.260;2023-07-13T07:39:30;11.35;;;6.97;;
20008;SDS011;10165;42.662;23.260;2023-07-13T07:41:57;14.02;;;7.32;;
20008;SDS011;10165;42.662;23.260;2023-07-13T07:44:24;16.40;;;7.43;;
20008;SDS011;10165;42.662;23.260;2023-07-13T07:46:51;12.57;;;6.88;;
20008;SDS011;10165;42.662;23.260;2023-07-13T07:49:18;11.82;;;7.57;;
20008;SDS011;10165;42.662;23.260;2023-07-13T07:51:45;12.60;;;7.57;;
20008;SDS011;10165;42.662;23.260;2023-07-13T07:54:11;11.93;;;7.10;;
20008;SDS011;10165;42.662;23.260;2023-07-13T07:56:47;11.65;;;7.43;;
20008;SDS011;10165;42.662;23.260;2023-07-13T07:59:33;14.18;;;7.88;;
20008;SDS011;10165;42.662;23.260;2023-07-13T08:02:03;14.32;;;7.63;;
20008;SDS011;10165;42.662;23.260;2023-07-13T08:04:33;8.75;;;6.68;;
20008;SDS011;10165;42.662;23.260;2023-07-13T08:07:02;13.63;;;7.13;;
20008;SDS011;10165;42.662;23.260;2023-07-13T08:09:29;10.13;;;7.13;;
20008;SDS011;10165;42.662;23.260;2023-07-13T08:11:56;10.25;;;6.70;;
20008;SDS011;10165;42.662;23.260;2023-07-13T08:14:26;13.18;;;6.72;;
20008;SDS011;10165;42.662;23.260;2023-07-13T08:17:08;18.80;;;7.50;;
20008;SDS011;10165;42.662;23.260;2023-07-13T08:19:35;9.15;;;6.80;;
20008;SDS011;10165;42.662;23.260;2023-07-13T08:22:01;15.75;;;7.03;;
20008;SDS011;10165;42.662;23.260;2023-07-13T08:24:31;8.65;;;6.43;;
20008;SDS011;10165;42.662;23.260;2023-07-13T08:26:58;15.13;;;6.35;;
20008;SDS011;10165;42.662;23.260;2023-07-13T08:29:25;10.43;;;6.32;;
20008;SDS011;10165;42.662;23.260;2023-07-13T08:31:52;11.43;;;6.30;;
20008;SDS011;10165;42.662;23.260;2023-07-13T08:34:19;10.93;;;6.75;;
20008;SDS011;10165;42.662;23.260;2023-07-13T08:36:47;12.70;;;7.32;;
20008;SDS011;10165;42.662;23.260;2023-07-13T08:39:13;11.25;;;7.05;;
20008;SDS011;10165;42.662;23.260;2023-07-13T08:41:40;9.00;;;6.90;;
20008;SDS011;10165;42.662;23.260;2023-07-13T08:44:10;13.55;;;6.75;;
20008;SDS011;10165;42.662;23.260;2023-07-13T08:47:00;13.98;;;6.82;;
20008;SDS011;10165;42.662;23.260;2023-07-13T08:49:28;10.93;;;6.18;;
20008;SDS011;10165;42.662;23.260;2023-07-13T08:51:57;11.60;;;6.50;;
20008;SDS011;10165;42.662;23.260;2023-07-13T08:54:32;10.10;;;6.63;;
20008;SDS011;10165;42.662;23.260;2023-07-13T08:57:27;14.02;;;7.07;;
20008;SDS011;10165;42.662;23.260;2023-07-13T08:59:59;15.68;;;6.35;;
20008;SDS011;10165;42.662;23.260;2023-07-13T09:02:35;10.02;;;6.70;;
20008;SDS011;10165;42.662;23.260;2023-07-13T09:05:22;16.73;;;6.47;;
20008;SDS011;10165;42.662;23.260;2023-07-13T09:08:07;13.38;;;6.38;;
20008;SDS011;10165;42.662;23.260;2023-07-13T09:10:46;9.40;;;6.43;;
20008;SDS011;10165;42.662;23.260;2023-07-13T09:13:30;10.93;;;6.95;;
20008;SDS011;10165;42.662;23.260;2023-07-13T09:16:22;11.73;;;7.05;;
20008;SDS011;10165;42.662;23.260;2023-07-13T09:18:50;10.20;;;6.82;;
20008;SDS011;10165;42.662;23.260;2023-07-13T09:21:23;9.70;;;6.38;;
20008;SDS011;10165;42.662;23.260;2023-07-13T09:23:56;15.85;;;7.28;;
20008;SDS011;10165;42.662;23.260;2023-07-13T09:26:28;15.15;;;7.43;;
20008;SDS011;10165;42.662;23.260;2023-07-13T09:29:06;10.25;;;6.68;;
20008;SDS011;10165;42.662;23.260;2023-07-13T09:31:42;10.43;;;6.20;;
20008;SDS011;10165;42.662;23.260;2023-07-13T09:34:13;12.88;;;7.40;;
20008;SDS011;10165;42.662;23.260;2023-07-13T09:36:40;13.95;;;6.60;;
20008;SDS011;10165;42.662;23.260;2023-07-13T09:41:41;10.23;;;6.97;;
20008;SDS011;10165;42.662;23.260;2023-07-13T09:46:57;9.05;;;4.95;;
20008;SDS011;10165;42.662;23.260;2023-07-13T09:49:34;6.43;;;5.32;;
20008;SDS011;10165;42.662;23.260;2023-07-13T09:52:03;6.57;;;3.67;;
20008;SDS011;10165;42.662;23.260;2023-07-13T09:54:33;7.85;;;3.83;;
20008;SDS011;10165;42.662;23.260;2023-07-13T09:57:02;8.20;;;4.38;;
20008;SDS011;10165;42.662;23.260;2023-07-13T09:59:32;10.77;;;4.47;;
20008;SDS011;10165;42.662;23.260;2023-07-13T10:02:01;5.97;;;3.50;;
20008;SDS011;10165;42.662;23.260;2023-07-13T10:04:32;5.25;;;3.65;;
20008;SDS011;10165;42.662;23.260;2023-07-13T10:07:07;8.18;;;4.15;;
20008;SDS011;10165;42.662;23.260;2023-07-13T10:09:55;9.45;;;3.95;;
20008;SDS011;10165;42.662;23.260;2023-07-13T10:12:23;14.27;;;4.28;;
20008;SDS011;10165;42.662;23.260;2023-07-13T10:14:55;9.60;;;4.45;;
20008;SDS011;10165;42.662;23.260;2023-07-13T10:17:42;7.05;;;4.32;;
20008;SDS011;10165;42.662;23.260;2023-07-13T10:20:10;6.47;;;3.70;;
20008;SDS011;10165;42.662;23.260;2023-07-13T10:22:43;8.88;;;4.03;;
20008;SDS011;10165;42.662;23.260;2023-07-13T10:25:18;6.15;;;4.03;;
20008;SDS011;10165;42.662;23.260;2023-07-13T10:27:49;7.15;;;4.13;;
20008;SDS011;10165;42.662;23.260;2023-07-13T10:30:20;6.15;;;4.07;;
20008;SDS011;10165;42.662;23.260;2023-07-13T10:32:51;7.65;;;3.97;;
20008;SDS011;10165;42.662;23.260;2023-07-13T10:35:19;9.57;;;4.38;;
20008;SDS011;10165;42.662;23.260;2023-07-13T10:37:53;5.50;;;3.90;;
20008;SDS011;10165;42.662;23.260;2023-07-13T10:40:32;9.68;;;4.68;;
20008;SDS011;10165;42.662;23.260;2023-07-13T10:43:04;7.78;;;4.00;;
20008;SDS011;10165;42.662;23.260;2023-07-13T10:45:39;4.70;;;3.75;;
20008;SDS011;10165;42.662;23.260;2023-07-13T10:48:08;6.55;;;4.10;;
20008;SDS011;10165;42.662;23.260;2023-07-13T10:50:42;8.95;;;4.75;;
20008;SDS011;10165;42.662;23.260;2023-07-13T10:53:18;7.35;;;4.60;;
20008;SDS011;10165;42.662;23.260;2023-07-13T10:58:22;7.43;;;4.07;;
20008;SDS011;10165;42.662;23.260;2023-07-13T11:01:03;5.38;;;3.65;;
20008;SDS011;10165;42.662;23.260;2023-07-13T11:09:18;5.30;;;4.22;;
20008;SDS011;10165;42.662;23.260;2023-07-13T11:12:08;10.15;;;4.40;;
20008;SDS011;10165;42.662;23.260;2023-07-13T11:15:00;7.10;;;4.40;;
20008;SDS011;10165;42.662;23.260;2023-07-13T11:25:36;5.05;;;4.22;;
20008;SDS011;10165;42.662;23.260;2023-07-13T11:36:21;6.35;;;4.75;;
20008;SDS011;10165;42.662;23.260;2023-07-13T11:41:44;10.15;;;4.40;;
20008;SDS011;10165;42.662;23.260;2023-07-13T11:44:22;9.43;;;4.18;;
20008;SDS011;10165;42.662;23.260;2023-07-13T11:46:51;8.38;;;4.65;;
20008;SDS011;10165;42.662;23.260;2023-07-13T11:49:22;5.63;;;4.13;;
20008;SDS011;10165;42.662;23.260;2023-07-13T11:51:51;12.00;;;4.53;;
20008;SDS011;10165;42.662;23.260;2023-07-13T11:54:26;6.55;;;4.03;;
20008;SDS011;10165;42.662;23.260;2023-07-13T11:59:33;7.65;;;3.85;;
20008;SDS011;10165;42.662;23.260;2023-07-13T12:02:14;7.50;;;4.35;;
20008;SDS011;10165;42.662;23.260;2023-07-13T12:04:45;10.65;;;3.90;;
20008;SDS011;10165;42.662;23.260;2023-07-13T12:07:16;8.23;;;4.53;;
20008;SDS011;10165;42.662;23.260;2023-07-13T12:09:44;8.27;;;4.13;;
20008;SDS011;10165;42.662;23.260;2023-07-13T12:12:12;10.75;;;4.05;;
20008;SDS011;10165;42.662;23.260;2023-07-13T12:14:40;17.13;;;4.35;;
20008;SDS011;10165;42.662;23.260;2023-07-13T12:17:20;10.15;;;4.03;;
20008;SDS011;10165;42.662;23.260;2023-07-13T12:19:49;4.60;;;4.07;;
20008;SDS011;10165;42.662;23.260;2023-07-13T12:22:18;10.80;;;4.15;;
20008;SDS011;10165;42.662;23.260;2023-07-13T12:24:46;15.20;;;4.43;;
20008;SDS011;10165;42.662;23.260;2023-07-13T12:27:22;7.47;;;4.20;;
20008;SDS011;10165;42.662;23.260;2023-07-13T12:29:52;7.75;;;3.60;;
20008;SDS011;10165;42.662;23.260;2023-07-13T12:32:26;4.85;;;3.60;;
20008;SDS011;10165;42.662;23.260;2023-07-13T12:34:56;9.57;;;4.07;;
20008;SDS011;10165;42.662;23.260;2023-07-13T12:37:43;7.63;;;4.10;;
20008;SDS011;10165;42.662;23.260;2023-07-13T12:40:16;6.68;;;4.05;;
20008;SDS011;10165;42.662;23.260;2023-07-13T12:42:49;6.95;;;4.07;;
20008;SDS011;10165;42.662;23.260;2023-07-13T12:45:19;5.63;;;3.80;;
20008;SDS011;10165;42.662;23.260;2023-07-13T12:47:52;10.45;;;3.95;;
20008;SDS011;10165;42.662;23.260;2023-07-13T12:50:36;5.07;;;3.58;;
20008;SDS011;10165;42.662;23.260;2023-07-13T12:53:12;6.55;;;3.92;;
20008;SDS011;10165;42.662;23.260;2023-07-13T12:55:50;6.93;;;4.07;;
20008;SDS011;10165;42.662;23.260;2023-07-13T12:58:32;8.18;;;4.57;;
20008;SDS011;10165;42.662;23.260;2023-07-13T13:01:03;11.57;;;4.07;;
20008;SDS011;10165;42.662;23.260;2023-07-13T13:03:32;7.63;;;4.10;;
20008;SDS011;10165;42.662;23.260;2023-07-13T13:08:46;6.88;;;4.10;;
20008;SDS011;10165;42.662;23.260;2023-07-13T13:11:15;8.10;;;3.60;;
20008;SDS011;10165;42.662;23.260;2023-07-13T13:13:42;6.72;;;4.07;;
20008;SDS011;10165;42.662;23.260;2023-07-13T13:16:20;10.20;;;4.10;;
20008;SDS011;10165;42.662;23.260;2023-07-13T13:18:49;11.23;;;3.97;;
20008;SDS011;10165;42.662;23.260;2023-07-13T13:21:17;6.32;;;3.58;;
20008;SDS011;10165;42.662;23.260;2023-07-13T13:23:45;5.15;;;3.90;;
20008;SDS011;10165;42.662;23.260;2023-07-13T13:26:13;10.38;;;3.80;;
20008;SDS011;10165;42.662;23.260;2023-07-13T13:28:44;10.50;;;4.32;;
20008;SDS011;10165;42.662;23.260;2023-07-13T13:31:11;6.70;;;3.38;;
20008;SDS011;10165;42.662;23.260;2023-07-13T13:33:40;5.63;;;3.65;;
20008;SDS011;10165;42.662;23.260;2023-07-13T13:36:13;8.25;;;3.80;;
20008;SDS011;10165;42.662;23.260;2023-07-13T13:38:49;6.00;;;3.50;;
20008;SDS011;10165;42.662;23.260;2023-07-13T13:41:16;10.77;;;3.70;;
20008;SDS011;10165;42.662;23.260;2023-07-13T13:43:43;11.25;;;3.88;;
20008;SDS011;10165;42.662;23.260;2023-07-13T13:48:44;11.93;;;4.20;;
20008;SDS011;10165;42.662;23.260;2023-07-13T13:51:15;9.18;;;4.07;;
20008;SDS011;10165;42.662;23.260;2023-07-13T13:53:44;8.02;;;4.10;;
20008;SDS011;10165;42.662;23.260;2023-07-13T13:56:12;15.07;;;4.25;;
20008;SDS011;10165;42.662;23.260;2023-07-13T13:58:40;6.47;;;4.38;;
20008;SDS011;10165;42.662;23.260;2023-07-13T14:01:14;8.20;;;4.47;;
20008;SDS011;10165;42.662;23.260;2023-07-13T14:03:46;8.52;;;3.80;;
20008;SDS011;10165;42.662;23.260;2023-07-13T14:06:18;6.28;;;3.88;;
20008;SDS011;10165;42.662;23.260;2023-07-13T14:08:45;6.15;;;4.35;;
20008;SDS011;10165;42.662;23.260;2023-07-13T14:11:15;5.93;;;4.00;;
20008;SDS011;10165;42.662;23.260;2023-07-13T14:13:50;8.95;;;3.85;;
20008;SDS011;10165;42.662;23.260;2023-07-13T14:16:20;12.25;;;4.70;;
20008;SDS011;10165;42.662;23.260;2023-07-13T14:18:49;11.18;;;4.20;;
20008;SDS011;10165;42.662;23.260;2023-07-13T14:21:16;14.63;;;4.43;;
20008;SDS011;10165;42.662;23.260;2023-07-13T14:23:45;7.38;;;4.30;;
20008;SDS011;10165;42.662;23.260;2023-07-13T14:26:17;8.63;;;4.82;;
20008;SDS011;10165;42.662;23.260;2023-07-13T14:28:47;8.85;;;3.33;;
20008;SDS011;10165;42.662;23.260;2023-07-13T14:31:16;7.70;;;4.25;;
20008;SDS011;10165;42.662;23.260;2023-07-13T14:33:44;9.52;;;4.15;;
20008;SDS011;10165;42.662;23.260;2023-07-13T14:38:58;8.70;;;4.70;;
20008;SDS011;10165;42.662;23.260;2023-07-13T14:41:28;5.28;;;3.67;;
20008;SDS011;10165;42.662;23.260;2023-07-13T14:43:54;10.93;;;4.10;;
20008;SDS011;10165;42.662;23.260;2023-07-13T14:46:24;7.88;;;4.30;;
20008;SDS011;10165;42.662;23.260;2023-07-13T14:48:59;11.65;;;4.30;;
20008;SDS011;10165;42.662;23.260;2023-07-13T14:51:46;10.93;;;4.40;;
20008;SDS011;10165;42.662;23.260;2023-07-13T14:54:13;7.60;;;4.20;;
20008;SDS011;10165;42.662;23.260;2023-07-13T14:56:40;8.63;;;4.93;;
20008;SDS011;10165;42.662;23.260;2023-07-13T14:59:07;8.98;;;4.80;;
20008;SDS011;10165;42.662;23.260;2023-07-13T15:01:34;13.50;;;5.10;;
20008;SDS011;10165;42.662;23.260;2023-07-13T15:04:03;9.40;;;4.45;;
20008;SDS011;10165;42.662;23.260;2023-07-13T15:06:30;8.23;;;4.72;;
20008;SDS011;10165;42.662;23.260;2023-07-13T15:08:57;9.63;;;4.53;;
20008;SDS011;10165;42.662;23.260;2023-07-13T15:11:24;6.75;;;3.53;;
20008;SDS011;10165;42.662;23.260;2023-07-13T15:13:51;10.02;;;4.32;;
20008;SDS011;10165;42.662;23.260;2023-07-13T15:16:22;5.75;;;4.07;;
20008;SDS011;10165;42.662;23.260;2023-07-13T15:18:50;9.98;;;4.20;;
20008;SDS011;10165;42.662;23.260;2023-07-13T15:21:21;9.52;;;3.72;;
20008;SDS011;10165;42.662;23.260;2023-07-13T15:23:50;6.22;;;4.13;;
20008;SDS011;10165;42.662;23.260;2023-07-13T15:26:17;7.57;;;4.13;;
20008;SDS011;10165;42.662;23.260;2023-07-13T15:28:46;6.70;;;4.47;;
20008;SDS011;10165;42.662;23.260;2023-07-13T15:31:20;8.23;;;3.35;;
20008;SDS011;10165;42.662;23.260;2023-07-13T15:33:50;6.65;;;3.97;;
20008;SDS011;10165;42.662;23.260;2023-07-13T15:36:19;8.60;;;4.07;;
20008;SDS011;10165;42.662;23.260;2023-07-13T15:38:47;16.52;;;4.20;;
20008;SDS011;10165;42.662;23.260;2023-07-13T15:43:49;7.72;;;4.40;;
20008;SDS011;10165;42.662;23.260;2023-07-13T15:46:18;5.80;;;4.05;;
20008;SDS011;10165;42.662;23.260;2023-07-13T15:48:48;7.35;;;4.35;;
20008;SDS011;10165;42.662;23.260;2023-07-13T15:51:20;8.63;;;4.13;;
20008;SDS011;10165;42.662;23.260;2023-07-13T15:53:47;9.65;;;4.22;;
20008;SDS011;10165;42.662;23.260;2023-07-13T15:56:17;9.35;;;4.28;;
20008;SDS011;10165;42.662;23.260;2023-07-13T15:58:49;7.55;;;3.80;;
20008;SDS011;10165;42.662;23.260;2023-07-13T16:01:17;9.38;;;4.05;;
20008;SDS011;10165;42.662;23.260;2023-07-13T16:03:46;11.90;;;4.55;;
20008;SDS011;10165;42.662;23.260;2023-07-13T16:06:32;7.65;;;4.45;;
20008;SDS011;10165;42.662;23.260;2023-07-13T16:09:02;10.95;;;4.60;;
20008;SDS011;10165;42.662;23.260;2023-07-13T16:11:35;11.65;;;4.82;;
20008;SDS011;10165;42.662;23.260;2023-07-13T16:14:05;11.65;;;4.43;;
20008;SDS011;10165;42.662;23.260;2023-07-13T16:16:33;11.30;;;3.92;;
20008;SDS011;10165;42.662;23.260;2023-07-13T16:19:02;5.68;;;4.32;;
20008;SDS011;10165;42.662;23.260;2023-07-13T16:21:35;6.82;;;4.22;;
20008;SDS011;10165;42.662;23.260;2023-07-13T16:24:08;9.55;;;4.05;;
20008;SDS011;10165;42.662;23.260;2023-07-13T16:26:43;5.78;;;4.18;;
20008;SDS011;10165;42.662;23.260;2023-07-13T16:29:20;12.18;;;4.25;;
20008;SDS011;10165;42.662;23.260;2023-07-13T16:31:56;7.45;;;4.25;;
20008;SDS011;10165;42.662;23.260;2023-07-13T16:34:23;8.70;;;4.00;;
20008;SDS011;10165;42.662;23.260;2023-07-13T16:36:52;8.68;;;4.35;;
20008;SDS011;10165;42.662;23.260;2023-07-13T16:39:20;8.02;;;4.50;;
20008;SDS011;10165;42.662;23.260;2023-07-13T16:41:53;6.55;;;4.30;;
20008;SDS011;10165;42.662;23.260;2023-07-13T16:44:22;7.20;;;4.60;;
20008;SDS011;10165;42.662;23.260;2023-07-13T16:46:51;7.38;;;4.60;;
20008;SDS011;10165;42.662;23.260;2023-07-13T16:49:23;10.20;;;4.82;;
20008;SDS011;10165;42.662;23.260;2023-07-13T16:52:01;13.02;;;4.78;;
20008;SDS011;10165;42.662;23.260;2023-07-13T16:54:34;7.30;;;4.63;;
20008;SDS011;10165;42.662;23.260;2023-07-13T16:57:03;10.13;;;4.25;;
20008;SDS011;10165;42.662;23.260;2023-07-13T16:59:52;6.22;;;3.97;;
20008;SDS011;10165;42.662;23.260;2023-07-13T17:04:55;5.10;;;4.03;;
20008;SDS011;10165;42.662;23.260;2023-07-13T17:07:22;5.07;;;4.00;;
20008;SDS011;10165;42.662;23.260;2023-07-13T17:09:50;10.20;;;4.20;;
20008;SDS011;10165;42.662;23.260;2023-07-13T17:12:18;6.63;;;4.00;;
20008;SDS011;10165;42.662;23.260;2023-07-13T17:14:48;10.30;;;3.65;;
20008;SDS011;10165;42.662;23.260;2023-07-13T17:17:16;12.18;;;4.57;;
20008;SDS011;10165;42.662;23.260;2023-07-13T17:19:45;5.82;;;3.63;;
20008;SDS011;10165;42.662;23.260;2023-07-13T17:22:17;8.95;;;4.32;;
20008;SDS011;10165;42.662;23.260;2023-07-13T17:24:45;7.05;;;4.70;;
20008;SDS011;10165;42.662;23.260;2023-07-13T17:27:15;9.68;;;4.38;;
20008;SDS011;10165;42.662;23.260;2023-07-13T17:29:41;4.45;;;3.42;;
20008;SDS011;10165;42.662;23.260;2023-07-13T17:32:09;9.52;;;4.13;;
20008;SDS011;10165;42.662;23.260;2023-07-13T17:34:41;5.85;;;3.97;;
20008;SDS011;10165;42.662;23.260;2023-07-13T17:37:12;12.30;;;4.25;;
20008;SDS011;10165;42.662;23.260;2023-07-13T17:39:42;7.28;;;4.57;;
20008;SDS011;10165;42.662;23.260;2023-07-13T17:42:10;10.65;;;4.53;;
20008;SDS011;10165;42.662;23.260;2023-07-13T17:44:39;6.00;;;4.15;;
20008;SDS011;10165;42.662;23.260;2023-07-13T17:47:22;14.10;;;4.57;;
20008;SDS011;10165;42.662;23.260;2023-07-13T17:49:52;11.45;;;4.15;;
20008;SDS011;10165;42.662;23.260;2023-07-13T17:52:20;8.23;;;3.80;;
20008;SDS011;10165;42.662;23.260;2023-07-13T17:54:47;8.35;;;3.97;;
20008;SDS011;10165;42.662;23.260;2023-07-13T17:57:16;6.93;;;3.67;;
20008;SDS011;10165;42.662;23.260;2023-07-13T17:59:43;8.50;;;4.03;;
20008;SDS011;10165;42.662;23.260;2023-07-13T18:02:14;8.90;;;4.50;;
20008;SDS011;10165;42.662;23.260;2023-07-13T18:04:46;6.50;;;3.70;;
20008;SDS011;10165;42.662;23.260;2023-07-13T18:07:13;6.95;;;3.78;;
20008;SDS011;10165;42.662;23.260;2023-07-13T18:09:44;8.07;;;3.50;;
20008;SDS011;10165;42.662;23.260;2023-07-13T18:12:13;6.90;;;3.83;;
20008;SDS011;10165;42.662;23.260;2023-07-13T18:14:41;8.85;;;4.03;;
20008;SDS011;10165;42.662;23.260;2023-07-13T18:17:09;5.22;;;3.55;;
20008;SDS011;10165;42.662;23.260;2023-07-13T18:19:40;12.27;;;4.38;;